createdAt,value
2023-03-04T00:00:28.176Z,1.60
2023-03-04T00:02:56.445Z,1.60
2023-03-04T00:05:25.172Z,1.50
2023-03-04T00:07:53.504Z,1.50
2023-03-04T00:10:21.658Z,1.50
2023-03-04T00:12:49.917Z,1.40
2023-03-04T00:15:19.436Z,1.50
2023-03-04T00:17:47.562Z,1.40
2023-03-04T00:20:16.459Z,1.40
2023-03-04T00:22:45.075Z,1.40
2023-03-04T00:25:13.277Z,1.40
2023-03-04T00:27:41.976Z,1.40
2023-03-04T00:30:11.455Z,1.40
2023-03-04T00:32:41.099Z,1.30
2023-03-04T00:35:10.032Z,1.20
2023-03-04T00:37:38.408Z,1.20
2023-03-04T00:40:07.783Z,1.30
2023-03-04T00:42:36.303Z,1.30
2023-03-04T00:45:05.736Z,1.20
2023-03-04T00:47:33.929Z,1.20
2023-03-04T00:50:03.478Z,1.20
2023-03-04T00:52:32.090Z,1.10
2023-03-04T00:55:00.344Z,1.20
2023-03-04T00:57:28.932Z,1.20
2023-03-04T00:59:57.303Z,1.10
2023-03-04T01:02:25.494Z,1.10
2023-03-04T01:04:53.861Z,1.00
2023-03-04T01:07:23.879Z,1.00
2023-03-04T01:09:52.024Z,1.00
2023-03-04T01:12:20.651Z,1.00
2023-03-04T01:14:49.310Z,1.00
2023-03-04T01:17:17.674Z,1.00
2023-03-04T01:19:46.145Z,1.00
2023-03-04T01:22:15.599Z,1.00
2023-03-04T01:24:45.129Z,0.90
2023-03-04T01:27:14.094Z,0.90
2023-03-04T01:29:42.206Z,0.90
2023-03-04T01:32:10.514Z,0.90
2023-03-04T01:34:39.104Z,0.80
2023-03-04T01:37:07.352Z,0.80
2023-03-04T01:39:35.561Z,0.80
2023-03-04T01:42:05.703Z,0.80
2023-03-04T01:44:34.642Z,0.80
2023-03-04T01:47:02.907Z,0.80
2023-03-04T01:49:31.191Z,0.70
2023-03-04T01:51:59.561Z,0.70
2023-03-04T01:54:27.909Z,0.70
2023-03-04T01:56:58.801Z,0.60
2023-03-04T01:59:32.853Z,0.60
2023-03-04T02:02:02.251Z,0.60
2023-03-04T02:04:34.517Z,0.60
2023-03-04T02:07:04.186Z,0.60
2023-03-04T02:09:33.947Z,0.50
2023-03-04T02:12:03.346Z,0.50
2023-03-04T02:14:33.463Z,0.60
2023-03-04T02:17:01.718Z,0.50
2023-03-04T02:19:43.047Z,0.40
2023-03-04T02:22:11.259Z,0.40
2023-03-04T02:24:45.244Z,0.40
2023-03-04T02:27:14.981Z,0.40
2023-03-04T02:29:43.209Z,0.40
2023-03-04T02:32:14.521Z,0.40
2023-03-04T02:34:48.894Z,0.30
2023-03-04T02:37:18.406Z,0.30
2023-03-04T02:39:47.911Z,0.30
2023-03-04T02:42:19.536Z,0.30
2023-03-04T02:44:50.534Z,0.20
2023-03-04T02:47:20.217Z,0.20
2023-03-04T02:49:48.673Z,0.20
2023-03-04T02:52:20.839Z,0.20
2023-03-04T02:54:49.639Z,0.20
2023-03-04T02:57:19.303Z,0.10
2023-03-04T02:59:47.912Z,0.10
2023-03-04T03:02:16.217Z,0.10
2023-03-04T03:04:44.902Z,0.10
2023-03-04T03:07:13.059Z,0.10
2023-03-04T03:09:41.611Z,0.20
2023-03-04T03:12:09.875Z,0.10
2023-03-04T03:14:39.446Z,0.20
2023-03-04T03:17:07.818Z,0.10
2023-03-04T03:19:36.351Z,0.10
2023-03-04T03:22:04.633Z,0.10
2023-03-04T03:24:33.336Z,0.10
2023-03-04T03:27:01.972Z,0.10
2023-03-04T03:29:30.223Z,0.00
2023-03-04T03:32:00.389Z,-0.10
2023-03-04T03:34:29.519Z,-0.10
2023-03-04T03:36:58.339Z,-0.20
2023-03-04T03:39:26.904Z,-0.20
2023-03-04T03:41:55.551Z,-0.30
2023-03-04T03:44:23.663Z,-0.30
2023-03-04T03:46:51.996Z,-0.40
2023-03-04T03:49:21.693Z,-0.40
2023-03-04T03:51:49.929Z,-0.50
2023-03-04T03:54:18.101Z,-0.50
2023-03-04T03:56:46.331Z,-0.50
2023-03-04T03:59:14.468Z,-0.50
2023-03-04T04:01:43.431Z,-0.60
2023-03-04T04:04:11.846Z,-0.60
2023-03-04T04:06:41.361Z,-0.60
2023-03-04T04:09:09.908Z,-0.70
2023-03-04T04:11:38.589Z,-0.70
2023-03-04T04:14:06.733Z,-0.70
2023-03-04T04:16:35.051Z,-0.70
2023-03-04T04:19:03.414Z,-0.70
2023-03-04T04:21:31.594Z,-0.80
2023-03-04T04:24:01.448Z,-0.90
2023-03-04T04:26:29.988Z,-0.90
2023-03-04T04:28:58.199Z,-0.90
2023-03-04T04:31:26.996Z,-0.90
2023-03-04T04:33:55.226Z,-1.00
2023-03-04T04:36:23.339Z,-0.90
2023-03-04T04:38:51.884Z,-1.00
2023-03-04T04:41:23.940Z,-1.00
2023-03-04T04:43:52.422Z,-1.10
2023-03-04T04:46:21.315Z,-1.10
2023-03-04T04:48:49.619Z,-1.10
2023-03-04T04:51:18.290Z,-1.10
2023-03-04T04:53:46.550Z,-1.10
2023-03-04T04:56:16.972Z,-1.10
2023-03-04T04:58:48.318Z,-1.20
2023-03-04T05:01:16.873Z,-1.20
2023-03-04T05:03:45.179Z,-1.20
2023-03-04T05:06:14.523Z,-1.20
2023-03-04T05:08:42.966Z,-1.30
2023-03-04T05:11:11.294Z,-1.20
2023-03-04T05:13:39.578Z,-1.30
2023-03-04T05:16:10.569Z,-1.30
2023-03-04T05:18:39.018Z,-1.30
2023-03-04T05:21:08.114Z,-1.30
2023-03-04T05:23:38.030Z,-1.40
2023-03-04T05:26:07.457Z,-1.40
2023-03-04T05:28:36.786Z,-1.50
2023-03-04T05:31:05.944Z,-1.50
2023-03-04T05:33:35.670Z,-1.50
2023-03-04T05:36:04.570Z,-1.50
2023-03-04T05:38:33.041Z,-1.50
2023-03-04T05:41:03.296Z,-1.50
2023-03-04T05:43:34.432Z,-1.60
2023-03-04T05:46:03.039Z,-1.50
2023-03-04T05:48:31.418Z,-1.60
2023-03-04T05:51:02.530Z,-1.60
2023-03-04T05:53:30.785Z,-1.60
2023-03-04T05:56:00.032Z,-1.60
2023-03-04T05:58:28.723Z,-1.60
2023-03-04T06:01:00.935Z,-1.70
2023-03-04T06:03:29.646Z,-1.70
2023-03-04T06:05:58.179Z,-1.70
2023-03-04T06:08:28.226Z,-1.70
2023-03-04T06:10:59.131Z,-1.70
2023-03-04T06:13:27.683Z,-1.80
2023-03-04T06:15:56.849Z,-1.80
2023-03-04T06:18:26.426Z,-1.70
2023-03-04T06:20:58.060Z,-1.80
2023-03-04T06:23:28.759Z,-1.80
2023-03-04T06:25:59.645Z,-1.80
2023-03-04T06:28:28.147Z,-1.80
2023-03-04T06:30:58.120Z,-1.70
2023-03-04T06:33:26.438Z,-1.70
2023-03-04T06:35:56.754Z,-1.70
2023-03-04T06:38:27.630Z,-1.70
2023-03-04T06:40:57.475Z,-1.70
2023-03-04T06:43:26.151Z,-1.70
2023-03-04T06:45:54.479Z,-1.70
2023-03-04T06:48:22.673Z,-1.70
2023-03-04T06:50:50.935Z,-1.70
2023-03-04T06:53:19.547Z,-1.70
2023-03-04T06:55:50.513Z,-1.70
2023-03-04T06:58:18.967Z,-1.70
2023-03-04T07:00:47.457Z,-1.70
2023-03-04T07:03:15.832Z,-1.70
2023-03-04T07:05:44.557Z,-1.70
2023-03-04T07:08:12.919Z,-1.70
2023-03-04T07:10:41.176Z,-1.70
2023-03-04T07:13:10.777Z,-1.70
2023-03-04T07:15:39.651Z,-1.70
2023-03-04T07:18:07.857Z,-1.70
2023-03-04T07:20:36.184Z,-1.60
2023-03-04T07:23:04.861Z,-1.60
2023-03-04T07:25:33.082Z,-1.60
2023-03-04T07:28:01.920Z,-1.50
2023-03-04T07:30:31.995Z,-1.50
2023-03-04T07:33:00.702Z,-1.50
2023-03-04T07:35:29.030Z,-1.50
2023-03-04T07:37:57.172Z,-1.40
2023-03-04T07:40:26.011Z,-1.50
2023-03-04T07:42:55.985Z,-1.40
2023-03-04T07:45:25.287Z,-1.30
2023-03-04T07:47:55.822Z,-1.20
2023-03-04T07:50:23.933Z,-1.20
2023-03-04T07:52:52.050Z,-1.10
2023-03-04T07:55:21.033Z,-1.10
2023-03-04T07:57:49.803Z,-1.00
2023-03-04T08:00:19.142Z,-1.10
2023-03-04T08:02:47.983Z,-1.10
2023-03-04T08:05:17.745Z,-1.10
2023-03-04T08:07:45.863Z,-1.20
2023-03-04T08:10:14.717Z,-1.10
2023-03-04T08:12:42.876Z,-1.00
2023-03-04T08:15:11.954Z,-0.90
2023-03-04T08:17:40.866Z,-0.90
2023-03-04T08:20:10.480Z,-0.90
2023-03-04T08:22:40.003Z,-0.80
2023-03-04T08:25:09.094Z,-0.90
2023-03-04T08:27:37.896Z,-0.80
2023-03-04T08:30:07.111Z,-0.80
2023-03-04T08:32:35.600Z,-0.90
2023-03-04T08:35:04.329Z,-0.90
2023-03-04T08:37:33.013Z,-0.90
2023-03-04T08:40:02.665Z,-0.80
2023-03-04T08:42:31.274Z,-0.60
2023-03-04T08:44:59.813Z,-0.50
2023-03-04T08:47:28.088Z,-0.30
2023-03-04T08:49:56.688Z,0.10
2023-03-04T08:52:25.351Z,0.10
2023-03-04T08:54:53.540Z,0.30
2023-03-04T08:57:23.544Z,0.80
2023-03-04T08:59:51.897Z,0.80
2023-03-04T09:02:20.010Z,0.70
2023-03-04T09:04:48.566Z,0.30
2023-03-04T09:07:17.309Z,0.10
2023-03-04T09:09:45.465Z,-0.20
2023-03-04T09:12:13.868Z,-0.30
2023-03-04T09:14:43.829Z,-0.30
2023-03-04T09:17:11.983Z,-0.40
2023-03-04T09:19:40.820Z,-0.30
2023-03-04T09:22:09.386Z,-0.40
2023-03-04T09:24:37.738Z,-0.40
2023-03-04T09:27:06.430Z,-0.30
2023-03-04T09:29:34.587Z,-0.10
2023-03-04T09:32:04.651Z,0.00
2023-03-04T09:34:33.261Z,0.10
2023-03-04T09:37:01.406Z,0.20
2023-03-04T09:39:30.048Z,0.50
2023-03-04T09:41:59.986Z,0.90
2023-03-04T09:44:32.299Z,1.10
2023-03-04T09:47:04.836Z,1.40
2023-03-04T09:49:33.804Z,1.90
2023-03-04T09:52:08.015Z,2.30
2023-03-04T09:54:52.903Z,2.90
2023-03-04T09:57:29.286Z,3.60
2023-03-04T10:00:07.985Z,3.80
2023-03-04T10:02:47.070Z,3.50
2023-03-04T10:05:19.705Z,4.10
2023-03-04T10:07:56.165Z,3.70
2023-03-04T10:10:31.544Z,3.60
2023-03-04T10:13:02.290Z,3.80
2023-03-04T10:15:36.558Z,3.90
2023-03-04T10:18:15.642Z,4.20
2023-03-04T10:20:53.547Z,4.30
2023-03-04T10:23:25.677Z,4.70
2023-03-04T10:25:54.913Z,5.10
2023-03-04T10:28:27.013Z,4.90
2023-03-04T10:31:01.033Z,5.00
2023-03-04T10:33:33.510Z,4.10
2023-03-04T10:36:04.411Z,4.60
2023-03-04T10:38:35.573Z,4.10
2023-03-04T10:41:14.639Z,4.20
2023-03-04T10:43:45.637Z,3.20
2023-03-04T10:46:14.651Z,4.00
2023-03-04T10:48:45.132Z,4.30
2023-03-04T10:51:20.130Z,5.00
2023-03-04T10:53:50.084Z,5.10
2023-03-04T10:56:37.263Z,5.20
2023-03-04T10:59:40.203Z,4.00
2023-03-04T11:02:21.966Z,3.00
2023-03-04T11:04:54.358Z,2.50
2023-03-04T11:07:24.742Z,2.40
2023-03-04T11:09:53.053Z,2.30
2023-03-04T11:12:32.653Z,2.00
2023-03-04T11:15:01.190Z,1.90
2023-03-04T11:17:41.155Z,2.00
2023-03-04T11:20:17.797Z,2.20
2023-03-04T11:22:47.565Z,2.10
2023-03-04T11:25:25.715Z,2.10
2023-03-04T11:27:57.060Z,2.20
2023-03-04T11:30:35.483Z,2.30
2023-03-04T11:33:15.747Z,2.30
2023-03-04T11:35:58.247Z,2.20
2023-03-04T11:38:33.077Z,2.00
2023-03-04T11:41:04.973Z,2.00
2023-03-04T11:43:37.586Z,2.00
2023-03-04T11:46:42.061Z,2.10
2023-03-04T11:49:30.896Z,2.30
2023-03-04T11:52:10.874Z,2.40
2023-03-04T11:54:51.048Z,2.10
2023-03-04T11:57:32.104Z,2.10
2023-03-04T12:00:17.410Z,2.20
2023-03-04T12:02:52.370Z,2.40
2023-03-04T12:05:31.161Z,2.70
2023-03-04T12:08:22.957Z,2.80
2023-03-04T12:10:57.165Z,2.50
2023-03-04T12:13:57.862Z,2.50
2023-03-04T12:17:01.835Z,2.60
2023-03-04T12:19:42.693Z,2.80
2023-03-04T12:22:24.613Z,2.80
2023-03-04T12:25:29.162Z,2.90
2023-03-04T12:28:09.301Z,2.90
2023-03-04T12:30:48.347Z,2.80
2023-03-04T12:33:25.583Z,2.80
2023-03-04T12:36:03.825Z,2.70
2023-03-04T12:38:54.229Z,2.60
2023-03-04T12:41:30.964Z,2.70
2023-03-04T12:44:14.158Z,2.60
2023-03-04T12:46:48.066Z,2.70
2023-03-04T12:49:37.135Z,2.70
2023-03-04T12:52:14.451Z,2.70
2023-03-04T12:54:47.411Z,2.60
2023-03-04T12:57:18.588Z,2.50
2023-03-04T12:59:53.815Z,2.50
2023-03-04T13:02:46.148Z,2.60
2023-03-04T13:05:28.380Z,2.50
2023-03-04T13:08:04.925Z,2.50
2023-03-04T13:10:33.631Z,2.50
2023-03-04T13:13:03.751Z,2.50
2023-03-04T13:15:36.675Z,2.60
2023-03-04T13:18:21.483Z,2.60
2023-03-04T13:21:08.259Z,2.50
2023-03-04T13:23:36.562Z,2.30
2023-03-04T13:26:21.602Z,2.30
2023-03-04T13:29:08.876Z,2.40
2023-03-04T13:31:59.750Z,2.40
2023-03-04T13:34:46.483Z,2.40
2023-03-04T13:37:35.748Z,2.40
2023-03-04T13:40:35.656Z,2.50
2023-03-04T13:43:26.664Z,2.30
2023-03-04T13:45:55.073Z,1.90
2023-03-04T13:48:32.958Z,1.80
2023-03-04T13:51:01.913Z,1.70
2023-03-04T13:53:50.079Z,1.60
2023-03-04T13:56:36.622Z,1.60
2023-03-04T13:59:29.806Z,1.60
2023-03-04T14:02:12.389Z,1.60
2023-03-04T14:04:44.188Z,1.70
2023-03-04T14:07:25.746Z,1.60
2023-03-04T14:10:00.059Z,1.60
2023-03-04T14:12:31.054Z,1.60
2023-03-04T14:15:02.127Z,1.60
2023-03-04T14:17:32.683Z,1.60
2023-03-04T14:20:05.049Z,1.50
2023-03-04T14:22:35.312Z,1.50
2023-03-04T14:25:06.120Z,1.50
2023-03-04T14:27:36.512Z,1.50
2023-03-04T14:30:08.002Z,1.50
2023-03-04T14:32:36.445Z,1.50
2023-03-04T14:35:09.178Z,1.60
2023-03-04T14:37:44.977Z,1.50
2023-03-04T14:40:23.618Z,1.60
2023-03-04T14:42:57.964Z,1.60
2023-03-04T14:45:27.747Z,1.60
2023-03-04T14:48:01.470Z,1.60
2023-03-04T14:50:31.531Z,1.60
2023-03-04T14:53:16.694Z,1.60
2023-03-04T14:55:58.239Z,1.60
2023-03-04T14:58:28.481Z,1.60
2023-03-04T15:01:16.802Z,1.60
2023-03-04T15:03:54.600Z,1.60
2023-03-04T15:06:26.210Z,1.70
2023-03-04T15:08:59.834Z,1.70
2023-03-04T15:11:31.027Z,1.80
2023-03-04T15:14:00.895Z,1.80
2023-03-04T15:16:30.848Z,1.90
2023-03-04T15:19:07.862Z,1.90
2023-03-04T15:21:40.962Z,1.90
2023-03-04T15:24:13.678Z,2.00
2023-03-04T15:26:43.701Z,2.00
2023-03-04T15:29:16.633Z,1.90
2023-03-04T15:31:48.258Z,1.90
2023-03-04T15:34:19.116Z,1.90
2023-03-04T15:36:51.426Z,1.90
2023-03-04T15:39:22.138Z,1.90
2023-03-04T15:41:50.657Z,1.90
2023-03-04T15:44:18.804Z,1.90
2023-03-04T15:46:47.492Z,1.80
2023-03-04T15:49:15.735Z,1.80
2023-03-04T15:51:43.865Z,1.70
2023-03-04T15:54:15.263Z,1.70
2023-03-04T15:56:44.001Z,1.70
2023-03-04T15:59:14.811Z,1.70
2023-03-04T16:01:43.559Z,1.80
2023-03-04T16:04:14.625Z,1.80
2023-03-04T16:06:44.880Z,1.80
2023-03-04T16:09:17.018Z,1.80
2023-03-04T16:11:47.673Z,1.70
2023-03-04T16:14:17.209Z,1.70
2023-03-04T16:16:46.984Z,1.70
2023-03-04T16:19:15.167Z,1.60
2023-03-04T16:21:43.340Z,1.60
2023-03-04T16:24:19.272Z,1.50
2023-03-04T16:26:47.879Z,1.50
2023-03-04T16:29:17.168Z,1.40
2023-03-04T16:31:45.740Z,1.40
2023-03-04T16:34:14.004Z,1.30
2023-03-04T16:36:42.563Z,1.30
2023-03-04T16:39:21.548Z,1.30
2023-03-04T16:41:51.143Z,1.30
2023-03-04T16:44:19.596Z,1.30
2023-03-04T16:46:48.445Z,1.30
2023-03-04T16:49:16.946Z,1.40
2023-03-04T16:51:48.976Z,1.40
2023-03-04T16:54:23.076Z,1.40
2023-03-04T16:56:51.246Z,1.50
2023-03-04T16:59:19.537Z,1.50
2023-03-04T17:01:47.854Z,1.50
2023-03-04T17:04:16.113Z,1.60
2023-03-04T17:06:44.315Z,1.60
2023-03-04T17:09:12.695Z,1.60
2023-03-04T17:11:42.211Z,1.60
2023-03-04T17:14:10.457Z,1.60
2023-03-04T17:16:38.868Z,1.60
2023-03-04T17:19:06.956Z,1.50
2023-03-04T17:21:35.587Z,1.50
2023-03-04T17:24:04.049Z,1.50
2023-03-04T17:26:33.431Z,1.50
2023-03-04T17:29:03.115Z,1.50
2023-03-04T17:31:31.435Z,1.50
2023-03-04T17:33:59.694Z,1.50
2023-03-04T17:36:27.838Z,1.40
2023-03-04T17:38:55.990Z,1.40
2023-03-04T17:41:25.001Z,1.40
2023-03-04T17:43:54.552Z,1.30
2023-03-04T17:46:26.997Z,1.20
2023-03-04T17:48:56.378Z,1.10
2023-03-04T17:51:31.106Z,1.10
2023-03-04T17:54:01.222Z,1.10
2023-03-04T17:56:31.893Z,1.10
2023-03-04T17:59:02.032Z,1.00
2023-03-04T18:01:31.835Z,1.00
2023-03-04T18:04:00.186Z,0.90
2023-03-04T18:06:28.387Z,0.80
2023-03-04T18:08:56.915Z,0.90
2023-03-04T18:11:27.267Z,0.90
2023-03-04T18:13:56.707Z,0.90
2023-03-04T18:16:26.633Z,0.90
2023-03-04T18:18:58.857Z,0.80
2023-03-04T18:21:28.240Z,0.80
2023-03-04T18:23:57.183Z,0.80
2023-03-04T18:26:25.520Z,0.70
2023-03-04T18:28:54.175Z,0.70
2023-03-04T18:31:23.296Z,0.60
2023-03-04T18:33:51.542Z,0.60
2023-03-04T18:36:21.836Z,0.70
2023-03-04T18:38:49.999Z,0.70
2023-03-04T18:41:18.179Z,0.70
2023-03-04T18:43:46.537Z,0.70
2023-03-04T18:46:29.065Z,0.70
2023-03-04T18:49:01.576Z,0.70
2023-03-04T18:51:32.416Z,0.70
2023-03-04T18:54:01.196Z,0.70
2023-03-04T18:56:37.878Z,0.70
2023-03-04T18:59:08.475Z,0.70
2023-03-04T19:01:37.458Z,0.60
2023-03-04T19:04:05.905Z,0.70
2023-03-04T19:06:36.427Z,0.60
2023-03-04T19:09:06.721Z,0.60
2023-03-04T19:11:35.057Z,0.60
2023-03-04T19:14:03.354Z,0.50
2023-03-04T19:16:32.082Z,0.50
2023-03-04T19:19:00.422Z,0.50
2023-03-04T19:21:28.589Z,0.50
2023-03-04T19:23:58.275Z,0.40
2023-03-04T19:26:26.817Z,0.40
2023-03-04T19:28:54.995Z,0.40
2023-03-04T19:31:23.728Z,0.40
2023-03-04T19:33:51.961Z,0.40
2023-03-04T19:36:20.170Z,0.40
2023-03-04T19:38:48.875Z,0.40
2023-03-04T19:41:19.114Z,0.40
2023-03-04T19:43:47.319Z,0.40
2023-03-04T19:46:16.254Z,0.30
2023-03-04T19:48:45.134Z,0.30
2023-03-04T19:51:17.722Z,0.20
2023-03-04T19:53:46.283Z,0.10
2023-03-04T19:56:14.547Z,0.00
2023-03-04T19:58:44.476Z,0.00
2023-03-04T20:01:21.713Z,0.00
2023-03-04T20:03:50.417Z,0.00
2023-03-04T20:06:18.696Z,0.00
2023-03-04T20:08:46.970Z,0.00
2023-03-04T20:11:15.775Z,0.00
2023-03-04T20:13:45.424Z,0.00
2023-03-04T20:16:14.971Z,0.00
2023-03-04T20:18:44.307Z,0.00
2023-03-04T20:21:13.059Z,-0.10
2023-03-04T20:23:41.233Z,-0.10
2023-03-04T20:26:10.011Z,-0.10
2023-03-04T20:28:38.300Z,-0.10
2023-03-04T20:31:18.769Z,-0.10
2023-03-04T20:33:48.805Z,-0.10
2023-03-04T20:36:17.834Z,-0.10
2023-03-04T20:38:46.736Z,-0.10
2023-03-04T20:41:15.094Z,-0.20
2023-03-04T20:43:43.712Z,-0.20
2023-03-04T20:46:34.911Z,-0.20
2023-03-04T20:49:06.041Z,-0.20
2023-03-04T20:51:34.858Z,-0.20
2023-03-04T20:54:03.550Z,-0.20
2023-03-04T20:56:32.965Z,-0.20
2023-03-04T20:59:03.704Z,-0.20
2023-03-04T21:01:33.951Z,-0.20
2023-03-04T21:04:02.795Z,-0.20
2023-03-04T21:06:32.528Z,-0.20
2023-03-04T21:09:04.412Z,-0.30
2023-03-04T21:11:39.932Z,-0.30
2023-03-04T21:14:09.723Z,-0.30
2023-03-04T21:16:39.865Z,-0.40
2023-03-04T21:19:08.015Z,-0.40
2023-03-04T21:21:36.644Z,-0.40
2023-03-04T21:24:05.295Z,-0.40
2023-03-04T21:26:33.562Z,-0.30
2023-03-04T21:29:02.282Z,-0.30
2023-03-04T21:31:35.124Z,-0.30
2023-03-04T21:34:05.267Z,-0.30
2023-03-04T21:36:34.696Z,-0.30
2023-03-04T21:39:02.880Z,-0.30
2023-03-04T21:41:32.145Z,-0.40
2023-03-04T21:44:00.738Z,-0.40
2023-03-04T21:46:29.083Z,-0.50
2023-03-04T21:48:57.231Z,-0.40
2023-03-04T21:51:27.241Z,-0.50
2023-03-04T21:53:55.974Z,-0.50
2023-03-04T21:56:24.339Z,-0.50
2023-03-04T21:58:52.610Z,-0.50
2023-03-04T22:01:22.785Z,-0.50
2023-03-04T22:03:51.514Z,-0.50
2023-03-04T22:06:23.763Z,-0.50
2023-03-04T22:08:55.323Z,-0.50
2023-03-04T22:11:24.865Z,-0.50
2023-03-04T22:13:54.969Z,-0.50
2023-03-04T22:16:23.380Z,-0.60
2023-03-04T22:18:51.861Z,-0.50
2023-03-04T22:21:21.728Z,-0.50
2023-03-04T22:23:50.176Z,-0.60
2023-03-04T22:26:26.747Z,-0.60
2023-03-04T22:28:55.421Z,-0.60
2023-03-04T22:31:30.164Z,-0.50
2023-03-04T22:33:59.249Z,-0.60
2023-03-04T22:36:29.389Z,-0.60
2023-03-04T22:38:57.598Z,-0.60
2023-03-04T22:41:27.887Z,-0.60
2023-03-04T22:43:56.124Z,-0.60
2023-03-04T22:46:26.984Z,-0.60
2023-03-04T22:48:58.661Z,-0.60
2023-03-04T22:51:27.347Z,-0.50
2023-03-04T22:53:56.253Z,-0.50
2023-03-04T22:56:25.510Z,-0.60
2023-03-04T22:58:55.154Z,-0.60
2023-03-04T23:01:23.434Z,-0.60
2023-03-04T23:03:52.377Z,-0.60
2023-03-04T23:06:22.557Z,-0.60
2023-03-04T23:08:54.831Z,-0.60
2023-03-04T23:11:26.417Z,-0.70
2023-03-04T23:13:59.172Z,-0.60
2023-03-04T23:16:29.077Z,-0.60
2023-03-04T23:18:59.391Z,-0.60
2023-03-04T23:21:29.366Z,-0.60
2023-03-04T23:23:57.605Z,-0.60
2023-03-04T23:26:27.997Z,-0.60
2023-03-04T23:29:00.313Z,-0.60
2023-03-04T23:31:28.864Z,-0.60
2023-03-04T23:33:58.188Z,-0.60
2023-03-04T23:36:28.294Z,-0.70
2023-03-04T23:38:58.056Z,-0.70
2023-03-04T23:41:28.470Z,-0.70
2023-03-04T23:43:59.415Z,-0.70
2023-03-04T23:46:28.785Z,-0.70
2023-03-04T23:48:57.644Z,-0.70
2023-03-04T23:51:28.403Z,-0.60
2023-03-04T23:53:57.748Z,-0.60
2023-03-04T23:56:28.421Z,-0.70
2023-03-04T23:58:59.937Z,-0.70
